Time;durP1;ratioP1;P1;durP2;ratioP2;P2;SDS_P1;SDS_P2;PMS_P1;PMS_P2;Temp;Humidity;BMP_temperature;BMP_pressure;BME280_temperature;BME280_humidity;BME280_pressure;Samples;Min_cycle;Max_cycle;Signal;HPM_P1;HPM_P2
2021/05/24 00:02:58;;;;;;;;;;;7.60;99.90;;;;;;8364435;28;19923;-67
2021/05/24 00:06:58;;;;;;;;;;;7.60;99.90;;;;;;8364584;28;19960;-67
2021/05/24 00:10:59;;;;;;;;;;;7.30;99.90;;;;;;8340689;28;19921;-67
2021/05/24 00:14:59;;;;;;;;;;;7.40;99.90;;;;;;8330899;28;19929;-66
2021/05/24 00:19:00;;;;;;;;;;;7.50;99.90;;;;;;8313545;28;19951;-67
2021/05/24 00:23:00;;;;;;;;;;;7.10;99.90;;;;;;8331237;28;20707;-67
2021/05/24 00:27:01;;;;;;;;;;;7.10;99.90;;;;;;8313250;28;20447;-67
2021/05/24 00:31:01;;;;;;;;;;;7.10;99.90;;;;;;8330330;28;19910;-67
2021/05/24 00:35:02;;;;;;;;;;;7.10;99.90;;;;;;8351232;28;19909;-67
2021/05/24 00:39:07;;;;;;;;;;;;;;;;;;8363377;28;19909;-66
2021/05/24 00:43:08;;;;;;;;;;;7.00;99.90;;;;;;8362542;28;19908;-67
2021/05/24 00:47:08;;;;;;;;;;;7.00;99.90;;;;;;8363213;28;20378;-67
2021/05/24 00:51:08;;;;;;;;;;;7.00;99.90;;;;;;8363022;28;19913;-67
2021/05/24 00:55:09;;;;;;;;;;;7.00;99.90;;;;;;8362797;28;20295;-67
2021/05/24 00:59:10;;;;;;;;;;;7.20;99.90;;;;;;8362531;28;19909;-67
2021/05/24 01:03:12;;;;;;;;;;;7.10;99.90;;;;;;8362510;28;19909;-67
2021/05/24 01:07:12;;;;;;;;;;;7.20;99.90;;;;;;8344477;28;20367;-67
2021/05/24 01:11:13;;;;;;;;;;;7.20;99.90;;;;;;8362257;28;19916;-67
2021/05/24 01:15:13;;;;;;;;;;;7.40;99.90;;;;;;8361934;28;20009;-67
2021/05/24 01:19:14;;;;;;;;;;;7.50;99.90;;;;;;8361899;28;19908;-67
2021/05/24 01:23:17;;;;;;;;;;;7.60;99.90;;;;;;8361822;28;20010;-67
2021/05/24 01:27:17;;;;;;;;;;;7.40;99.90;;;;;;8361681;28;19924;-67
2021/05/24 01:31:18;;;;;;;;;;;7.00;99.90;;;;;;8361284;28;19909;-67
2021/05/24 01:35:18;;;;;;;;;;;7.00;99.90;;;;;;8361226;28;19909;-67
2021/05/24 01:39:19;;;;;;;;;;;6.80;99.90;;;;;;8361250;28;19915;-67
2021/05/24 01:43:20;;;;;;;;;;;6.80;99.90;;;;;;8360972;28;19908;-67
2021/05/24 01:47:20;;;;;;;;;;;6.90;99.90;;;;;;8343225;28;20287;-67
2021/05/24 01:51:21;;;;;;;;;;;6.80;99.90;;;;;;8342998;28;19935;-67
2021/05/24 01:55:21;;;;;;;;;;;6.90;99.90;;;;;;8359645;28;20245;-67
2021/05/24 01:59:22;;;;;;;;;;;6.80;99.90;;;;;;8329658;28;19912;-67
2021/05/24 02:03:22;;;;;;;;;;;6.70;99.90;;;;;;8334110;28;19909;-67
2021/05/24 02:07:30;;;;;;;;;;;6.60;99.90;;;;;;8360531;28;19919;-67
2021/05/24 02:11:30;;;;;;;;;;;6.70;99.90;;;;;;8360255;28;19909;-67
2021/05/24 02:15:32;;;;;;;;;;;6.70;99.90;;;;;;8359919;28;19931;-67
2021/05/24 02:19:33;;;;;;;;;;;6.50;99.90;;;;;;8359184;28;19916;-67
2021/05/24 02:23:33;;;;;;;;;;;6.50;99.90;;;;;;8359327;28;20275;-67
2021/05/24 02:27:34;;;;;;;;;;;6.50;99.90;;;;;;8359898;28;19951;-67
2021/05/24 02:31:35;;;;;;;;;;;6.40;99.90;;;;;;8358984;28;19916;-67
2021/05/24 02:35:35;;;;;;;;;;;6.40;99.90;;;;;;8359376;28;19909;-67
2021/05/24 02:39:36;;;;;;;;;;;6.60;99.90;;;;;;8359098;28;19999;-67
2021/05/24 02:43:36;;;;;;;;;;;6.60;99.90;;;;;;8341412;28;19912;-67
2021/05/24 02:47:37;;;;;;;;;;;6.20;99.90;;;;;;8341644;28;19912;-66
2021/05/24 02:51:37;;;;;;;;;;;6.30;99.90;;;;;;8359262;28;19909;-66
2021/05/24 02:55:38;;;;;;;;;;;6.60;99.90;;;;;;8358961;28;20007;-67
2021/05/24 02:59:38;;;;;;;;;;;6.40;99.90;;;;;;8359233;28;20002;-67
2021/05/24 03:03:40;;;;;;;;;;;6.30;99.90;;;;;;8358874;28;20276;-66
2021/05/24 03:07:41;;;;;;;;;;;6.20;99.90;;;;;;8359140;28;19928;-67
2021/05/24 03:11:41;;;;;;;;;;;6.10;99.90;;;;;;8341445;28;19988;-67
2021/05/24 03:15:42;;;;;;;;;;;6.00;99.90;;;;;;8359166;28;19963;-67
2021/05/24 03:19:42;;;;;;;;;;;6.20;99.90;;;;;;8358969;28;19909;-67
2021/05/24 03:23:43;;;;;;;;;;;5.90;99.90;;;;;;8340804;28;20378;-67
2021/05/24 03:27:44;;;;;;;;;;;;;;;;;;8358851;28;20007;-67
2021/05/24 03:31:44;;;;;;;;;;;6.20;99.90;;;;;;8358680;28;20350;-67
2021/05/24 03:35:45;;;;;;;;;;;6.10;99.90;;;;;;8358380;28;19916;-67
2021/05/24 03:39:45;;;;;;;;;;;5.90;99.90;;;;;;8340064;28;19959;-67
2021/05/24 03:43:47;;;;;;;;;;;5.90;99.90;;;;;;8358369;28;19920;-67
2021/05/24 03:47:49;;;;;;;;;;;5.90;99.90;;;;;;8358665;28;20307;-67
2021/05/24 03:51:49;;;;;;;;;;;5.80;99.90;;;;;;8358291;28;19994;-67
2021/05/24 03:55:50;;;;;;;;;;;5.70;99.90;;;;;;8358071;28;20367;-67
2021/05/24 03:59:50;;;;;;;;;;;5.90;99.90;;;;;;8358195;28;19908;-67
2021/05/24 04:03:53;;;;;;;;;;;5.90;99.90;;;;;;8357537;28;19917;-67
2021/05/24 04:07:54;;;;;;;;;;;5.80;99.90;;;;;;8340632;28;19931;-67
2021/05/24 04:11:54;;;;;;;;;;;5.90;99.90;;;;;;8358224;28;19909;-67
2021/05/24 04:15:57;;;;;;;;;;;6.20;99.90;;;;;;8358114;28;20000;-67
2021/05/24 04:19:57;;;;;;;;;;;6.10;99.90;;;;;;8363926;28;19917;-67
2021/05/24 04:23:58;;;;;;;;;;;6.00;99.90;;;;;;8363796;28;19912;-67
2021/05/24 04:27:58;;;;;;;;;;;6.10;99.90;;;;;;8346251;28;19913;-67
2021/05/24 04:31:59;;;;;;;;;;;6.20;99.90;;;;;;8363708;28;19912;-67
2021/05/24 04:36:00;;;;;;;;;;;6.30;99.90;;;;;;8363195;28;19909;-67
2021/05/24 04:40:00;;;;;;;;;;;6.30;99.90;;;;;;8362517;28;19908;-67
2021/05/24 04:44:17;;;;;;;;;;;6.20;99.90;;;;;;8362976;28;19959;-67
2021/05/24 04:48:18;;;;;;;;;;;6.40;99.90;;;;;;8345639;28;20012;-67
2021/05/24 04:52:19;;;;;;;;;;;6.60;99.90;;;;;;8338223;28;19919;-67
2021/05/24 04:56:19;;;;;;;;;;;6.40;99.90;;;;;;8327746;28;19909;-67
2021/05/24 05:00:20;;;;;;;;;;;6.40;99.90;;;;;;8345270;28;19908;-67
2021/05/24 05:04:20;;;;;;;;;;;6.50;99.90;;;;;;8346291;28;19932;-67
2021/05/24 05:08:21;;;;;;;;;;;6.80;99.90;;;;;;8359079;28;19921;-67
2021/05/24 05:12:21;;;;;;;;;;;6.90;99.90;;;;;;8361004;28;19976;-67
2021/05/24 05:16:22;;;;;;;;;;;6.90;99.90;;;;;;8347705;28;19921;-67
2021/05/24 05:20:22;;;;;;;;;;;7.10;99.90;;;;;;8356433;28;19913;-67
2021/05/24 05:24:23;;;;;;;;;;;7.30;99.90;;;;;;8361134;28;19921;-67
2021/05/24 05:28:24;;;;;;;;;;;8.50;99.90;;;;;;8350805;28;20690;-67
2021/05/24 05:32:25;;;;;;;;;;;9.50;99.90;;;;;;8327752;28;19912;-65
2021/05/24 05:36:27;;;;;;;;;;;9.90;99.90;;;;;;8343429;28;19912;-64
2021/05/24 05:40:30;;;;;;;;;;;10.10;99.90;;;;;;8342228;28;19921;-65
2021/05/24 05:44:30;;;;;;;;;;;10.30;99.90;;;;;;8324153;28;19927;-63
2021/05/24 05:48:31;;;;;;;;;;;10.20;99.90;;;;;;8357737;28;19913;-64
2021/05/24 05:52:34;;;;;;;;;;;10.30;99.90;;;;;;8359875;28;19913;-65
2021/05/24 05:56:35;;;;;;;;;;;10.70;99.90;;;;;;8359557;28;20331;-65
2021/05/24 06:00:35;;;;;;;;;;;10.80;99.90;;;;;;8359324;28;19913;-64
2021/05/24 06:04:35;;;;;;;;;;;10.70;99.90;;;;;;8357524;28;20028;-65
2021/05/24 06:08:36;;;;;;;;;;;10.20;99.90;;;;;;8356249;28;19913;-65
2021/05/24 06:12:37;;;;;;;;;;;10.10;99.90;;;;;;8350055;28;20276;-64
2021/05/24 06:16:38;;;;;;;;;;;10.30;99.90;;;;;;8330572;28;19917;-64
2021/05/24 06:20:38;;;;;;;;;;;10.60;99.90;;;;;;8346972;28;19966;-65
2021/05/24 06:24:39;;;;;;;;;;;10.80;99.90;;;;;;8340640;28;19917;-65
2021/05/24 06:28:39;;;;;;;;;;;11.20;99.90;;;;;;8359048;28;20007;-65
2021/05/24 06:32:40;;;;;;;;;;;11.30;99.90;;;;;;8359233;28;19909;-65
2021/05/24 06:36:40;;;;;;;;;;;11.40;99.90;;;;;;8348864;28;19921;-64
2021/05/24 06:40:41;;;;;;;;;;;11.70;99.90;;;;;;8345262;28;19920;-64
2021/05/24 06:44:41;;;;;;;;;;;11.60;99.90;;;;;;8336758;28;20287;-65
2021/05/24 06:48:42;;;;;;;;;;;11.50;99.90;;;;;;8338836;28;19913;-65
2021/05/24 06:52:42;;;;;;;;;;;11.10;99.90;;;;;;8357721;28;19913;-64
2021/05/24 06:56:43;;;;;;;;;;;11.20;99.90;;;;;;8352007;28;19925;-65
2021/05/24 07:00:43;;;;;;;;;;;11.40;99.90;;;;;;8316818;28;19913;-64
2021/05/24 07:04:44;;;;;;;;;;;11.20;99.90;;;;;;8351248;28;19917;-64
2021/05/24 07:08:45;;;;;;;;;;;10.70;99.90;;;;;;8357669;28;19913;-65
2021/05/24 07:12:45;;;;;;;;;;;10.40;99.90;;;;;;8357472;28;20008;-64
2021/05/24 07:16:46;;;;;;;;;;;10.40;99.90;;;;;;8357105;28;19983;-64
2021/05/24 07:20:47;;;;;;;;;;;10.50;99.90;;;;;;8344610;28;20127;-63
2021/05/24 07:24:47;;;;;;;;;;;10.70;99.90;;;;;;8351490;28;20299;-64
2021/05/24 07:28:48;;;;;;;;;;;11.30;99.90;;;;;;8355083;28;19917;-65
2021/05/24 07:32:49;;;;;;;;;;;11.80;99.90;;;;;;8357511;28;19913;-65
2021/05/24 07:36:49;;;;;;;;;;;12.10;99.90;;;;;;8350446;28;19917;-65
2021/05/24 07:40:50;;;;;;;;;;;12.00;99.90;;;;;;8342625;28;19917;-65
2021/05/24 07:44:50;;;;;;;;;;;12.10;99.90;;;;;;8330978;28;19940;-66
2021/05/24 07:48:51;;;;;;;;;;;11.80;99.90;;;;;;8337634;28;20284;-65
2021/05/24 07:52:51;;;;;;;;;;;12.00;99.90;;;;;;8359687;28;20391;-66
2021/05/24 07:56:52;;;;;;;;;;;12.20;99.90;;;;;;8363093;28;19915;-66
2021/05/24 08:00:52;;;;;;;;;;;11.80;99.90;;;;;;8363676;28;19963;-65
2021/05/24 08:04:53;;;;;;;;;;;11.70;99.90;;;;;;8327686;28;19924;-66
2021/05/24 08:08:53;;;;;;;;;;;11.80;99.90;;;;;;8329449;28;19923;-65
2021/05/24 08:12:54;;;;;;;;;;;11.70;99.90;;;;;;8337498;28;19920;-65
2021/05/24 08:16:55;;;;;;;;;;;11.60;99.90;;;;;;8360465;28;19923;-65
2021/05/24 08:20:55;;;;;;;;;;;11.60;99.90;;;;;;8358744;28;19909;-65
2021/05/24 08:24:56;;;;;;;;;;;11.40;99.90;;;;;;8337732;28;20000;-65
2021/05/24 08:28:57;;;;;;;;;;;11.40;99.90;;;;;;8331014;28;19913;-66
2021/05/24 08:32:58;;;;;;;;;;;11.50;99.90;;;;;;8332402;28;20398;-66
2021/05/24 08:36:58;;;;;;;;;;;11.90;99.90;;;;;;8342877;28;19909;-65
2021/05/24 08:41:06;;;;;;;;;;;12.30;99.90;;;;;;8345089;28;19936;-65
2021/05/24 08:45:06;;;;;;;;;;;12.70;99.90;;;;;;8357399;28;19917;-64
2021/05/24 08:49:08;;;;;;;;;;;12.90;99.90;;;;;;8346010;28;19913;-65
2021/05/24 08:53:10;;;;;;;;;;;13.20;99.90;;;;;;8340132;28;19909;-66
2021/05/24 08:57:10;;;;;;;;;;;13.40;99.90;;;;;;8358293;28;19920;-65
2021/05/24 09:01:11;;;;;;;;;;;13.70;99.90;;;;;;8361287;28;19913;-65
2021/05/24 09:05:11;;;;;;;;;;;14.00;99.90;;;;;;8361422;28;20403;-66
2021/05/24 09:09:13;;;;;;;;;;;14.10;99.90;;;;;;8361671;28;19916;-65
2021/05/24 09:13:19;;;;;;;;;;;14.20;99.90;;;;;;8360879;28;19935;-65
2021/05/24 09:17:19;;;;;;;;;;;14.40;99.90;;;;;;8358314;28;19991;-65
2021/05/24 09:21:21;;;;;;;;;;;14.60;99.90;;;;;;8361132;28;19913;-64
2021/05/24 09:25:42;;;;;;;;;;;14.60;99.90;;;;;;8360565;28;19974;-65
2021/05/24 09:29:43;;;;;;;;;;;14.60;99.90;;;;;;8343309;28;19917;-64
2021/05/24 09:33:45;;;;;;;;;;;14.50;99.90;;;;;;8359227;28;20342;-65
2021/05/24 09:37:45;;;;;;;;;;;14.30;99.90;;;;;;8343134;28;19913;-64
2021/05/24 09:41:47;;;;;;;;;;;14.30;99.90;;;;;;8330211;28;19967;-65
2021/05/24 09:45:48;;;;;;;;;;;14.20;99.90;;;;;;8349723;28;19929;-65
2021/05/24 09:49:50;;;;;;;;;;;14.40;99.90;;;;;;8349328;28;19962;-65
2021/05/24 09:54:05;;;;;;;;;;;15.00;99.90;;;;;;8354751;28;19908;-65
2021/05/24 09:58:07;;;;;;;;;;;15.90;99.90;;;;;;8360542;28;20017;-65
2021/05/24 10:02:09;;;;;;;;;;;16.30;99.90;;;;;;8360529;28;19913;-65
2021/05/24 10:06:10;;;;;;;;;;;15.90;99.90;;;;;;8337810;28;19924;-65
2021/05/24 10:10:11;;;;;;;;;;;16.20;99.90;;;;;;8335197;28;19913;-65
2021/05/24 10:14:12;;;;;;;;;;;16.30;99.90;;;;;;8355662;28;20391;-65
2021/05/24 10:18:13;;;;;;;;;;;16.50;99.90;;;;;;8359047;28;20349;-65
2021/05/24 10:22:13;;;;;;;;;;;16.60;99.90;;;;;;8355474;28;19919;-66
2021/05/24 10:26:15;;;;;;;;;;;16.80;99.90;;;;;;8356600;28;20011;-65
2021/05/24 10:30:16;;;;;;;;;;;16.70;99.90;;;;;;8332578;28;19913;-65
2021/05/24 10:34:21;;;;;;;;;;;16.30;99.90;;;;;;8350133;28;19921;-64
2021/05/24 10:38:22;;;;;;;;;;;16.40;99.90;;;;;;8353066;28;20374;-65
2021/05/24 10:42:39;;;;;;;;;;;16.60;99.90;;;;;;8352198;28;20382;-65
2021/05/24 10:46:40;;;;;;;;;;;16.30;99.90;;;;;;8351362;28;19921;-65
2021/05/24 10:50:42;;;;;;;;;;;16.40;99.90;;;;;;8352334;28;19931;-64
2021/05/24 10:54:43;;;;;;;;;;;16.70;99.90;;;;;;8335267;28;20321;-65
2021/05/24 10:58:44;;;;;;;;;;;16.60;99.90;;;;;;8348103;28;20070;-65
2021/05/24 11:02:50;;;;;;;;;;;16.50;99.90;;;;;;8351394;28;19921;-66
2021/05/24 11:07:10;;;;;;;;;;;16.40;99.90;;;;;;8347725;28;19917;-65
2021/05/24 11:11:19;;;;;;;;;;;17.20;99.90;;;;;;8350657;28;20466;-65
2021/05/24 11:15:21;;;;;;;;;;;18.30;99.90;;;;;;8334316;28;19909;-65
2021/05/24 11:19:26;;;;;;;;;;;18.90;99.90;;;;;;8351483;28;20279;-65
2021/05/24 11:28:02;;;;;;;;;;;19.00;99.90;;;;;;8353967;28;19921;-65
2021/05/24 11:32:21;;;;;;;;;;;19.80;99.90;;;;;;8356656;28;20465;-66
2021/05/24 11:36:28;;;;;;;;;;;19.60;99.90;;;;;;8348315;28;19921;-66
2021/05/24 11:40:29;;;;;;;;;;;19.90;99.90;;;;;;8358462;28;19966;-66
2021/05/24 11:44:39;;;;;;;;;;;19.60;99.40;;;;;;8347239;28;19929;-65
2021/05/24 11:48:45;;;;;;;;;;;19.60;98.10;;;;;;8345461;28;19921;-66
2021/05/24 11:52:46;;;;;;;;;;;20.00;99.90;;;;;;8343526;28;19916;-65
2021/05/24 11:56:47;;;;;;;;;;;19.60;99.90;;;;;;8345656;28;20005;-65
2021/05/24 12:00:49;;;;;;;;;;;19.10;99.90;;;;;;8327555;28;20302;-67
2021/05/24 12:04:50;;;;;;;;;;;19.00;99.90;;;;;;8356266;28;19924;-67
2021/05/24 12:08:50;;;;;;;;;;;18.60;99.90;;;;;;8353929;28;19913;-67
2021/05/24 12:12:53;;;;;;;;;;;17.70;99.90;;;;;;8341049;28;19913;-67
2021/05/24 12:16:53;;;;;;;;;;;17.60;99.90;;;;;;8357258;28;19913;-68
2021/05/24 12:20:54;;;;;;;;;;;18.10;99.90;;;;;;8355419;28;19939;-68
2021/05/24 12:24:55;;;;;;;;;;;18.10;99.90;;;;;;8356663;28;19925;-67
2021/05/24 12:28:56;;;;;;;;;;;17.90;99.90;;;;;;8358793;28;19970;-67
2021/05/24 12:33:05;;;;;;;;;;;17.70;99.90;;;;;;8359196;28;19992;-68
2021/05/24 12:37:08;;;;;;;;;;;17.50;99.90;;;;;;8358973;28;19919;-67
2021/05/24 12:41:08;;;;;;;;;;;17.30;99.90;;;;;;8360344;28;19924;-66
2021/05/24 12:45:11;;;;;;;;;;;16.90;99.90;;;;;;8342967;28;19963;-67
2021/05/24 12:49:11;;;;;;;;;;;16.70;99.90;;;;;;8342762;28;20730;-64
2021/05/24 12:53:13;;;;;;;;;;;16.60;99.90;;;;;;8358264;28;19912;-65
2021/05/24 12:57:18;;;;;;;;;;;16.60;99.90;;;;;;8356601;28;19919;-66
2021/05/24 13:01:29;;;;;;;;;;;16.50;99.90;;;;;;8336823;28;20761;-65
2021/05/24 13:05:29;;;;;;;;;;;16.50;99.90;;;;;;8357316;28;19916;-64
2021/05/24 13:09:32;;;;;;;;;;;16.30;99.90;;;;;;8360251;28;19934;-64
2021/05/24 13:13:33;;;;;;;;;;;16.10;99.90;;;;;;8357546;28;19909;-64
2021/05/24 13:17:50;;;;;;;;;;;16.00;99.90;;;;;;8358347;28;19916;-66
2021/05/24 13:22:20;;;;;;;;;;;16.00;99.90;;;;;;8341457;28;19974;-65
2021/05/24 13:30:47;;;;;;;;;;;16.20;99.90;;;;;;8328979;28;19916;-64
2021/05/24 13:34:48;;;;;;;;;;;15.90;99.90;;;;;;8357989;28;20379;-64
2021/05/24 13:39:04;;;;;;;;;;;15.80;99.90;;;;;;8357775;28;19913;-64
2021/05/24 13:43:04;;;;;;;;;;;15.70;99.90;;;;;;8354585;28;19913;-63
2021/05/24 13:47:05;;;;;;;;;;;15.60;99.90;;;;;;8358480;28;19943;-65
2021/05/24 13:51:05;;;;;;;;;;;15.60;99.90;;;;;;8358293;28;19916;-65
2021/05/24 13:55:07;;;;;;;;;;;15.80;99.90;;;;;;8359157;28;19963;-64
2021/05/24 13:59:08;;;;;;;;;;;16.20;99.90;;;;;;8360038;28;19921;-65
2021/05/24 14:03:08;;;;;;;;;;;16.40;99.90;;;;;;8341906;28;20298;-63
2021/05/24 14:07:09;;;;;;;;;;;16.30;99.90;;;;;;8359614;28;19965;-65
2021/05/24 14:11:11;;;;;;;;;;;16.30;99.90;;;;;;8359424;28;21547;-65
2021/05/24 14:15:13;;;;;;;;;;;16.10;99.90;;;;;;8358308;28;19920;-64
2021/05/24 14:19:13;;;;;;;;;;;16.10;99.90;;;;;;8358261;28;20334;-65
2021/05/24 14:23:14;;;;;;;;;;;16.30;99.90;;;;;;8344490;28;19917;-65
2021/05/24 14:27:14;;;;;;;;;;;16.30;99.90;;;;;;8354701;28;19917;-65
2021/05/24 14:31:15;;;;;;;;;;;16.00;99.90;;;;;;8359994;28;19908;-65
2021/05/24 14:35:15;;;;;;;;;;;16.00;99.90;;;;;;8358510;28;19927;-66
2021/05/24 14:39:16;;;;;;;;;;;16.00;99.90;;;;;;8357806;28;19979;-65
2021/05/24 14:43:16;;;;;;;;;;;15.90;99.90;;;;;;8340384;28;19908;-65
2021/05/24 14:47:17;;;;;;;;;;;15.70;99.90;;;;;;8357096;28;19924;-65
2021/05/24 14:51:22;;;;;;;;;;;15.60;99.90;;;;;;8349649;28;19928;-65
2021/05/24 14:55:22;;;;;;;;;;;15.40;99.90;;;;;;8351107;28;20008;-66
2021/05/24 14:59:23;;;;;;;;;;;15.30;99.90;;;;;;8345420;28;20375;-66
2021/05/24 15:03:23;;;;;;;;;;;15.10;99.90;;;;;;8333782;28;19921;-65
2021/05/24 15:07:24;;;;;;;;;;;15.00;99.90;;;;;;8344483;28;19971;-67
2021/05/24 15:11:25;;;;;;;;;;;15.00;99.90;;;;;;8347897;28;19956;-65
2021/05/24 15:15:26;;;;;;;;;;;15.10;99.90;;;;;;8335949;28;19924;-66
2021/05/24 15:19:27;;;;;;;;;;;15.40;99.90;;;;;;8336301;28;19920;-66
2021/05/24 15:23:29;;;;;;;;;;;15.60;99.90;;;;;;8357697;28;20315;-65
2021/05/24 15:27:29;;;;;;;;;;;15.50;99.90;;;;;;8353862;28;19921;-65
2021/05/24 15:31:30;;;;;;;;;;;15.50;99.90;;;;;;8354814;28;19913;-65
2021/05/24 15:35:30;;;;;;;;;;;15.30;99.90;;;;;;8337975;28;19962;-67
2021/05/24 15:39:31;;;;;;;;;;;15.00;99.90;;;;;;8339547;28;19913;-67
2021/05/24 15:43:31;;;;;;;;;;;14.80;99.90;;;;;;8355801;28;19963;-67
2021/05/24 15:47:32;;;;;;;;;;;14.70;99.90;;;;;;8347371;28;19924;-67
2021/05/24 15:51:33;;;;;;;;;;;14.60;99.90;;;;;;8356685;28;19913;-67
2021/05/24 15:55:34;;;;;;;;;;;14.60;99.90;;;;;;8358099;28;20046;-66
2021/05/24 15:59:34;;;;;;;;;;;14.50;99.90;;;;;;8358438;28;19958;-67
2021/05/24 16:03:35;;;;;;;;;;;14.40;99.90;;;;;;8340709;28;20322;-66
2021/05/24 16:07:35;;;;;;;;;;;14.30;99.90;;;;;;8358330;28;20403;-66
2021/05/24 16:11:39;;;;;;;;;;;14.20;99.90;;;;;;8340388;28;20448;-66
2021/05/24 16:15:39;;;;;;;;;;;14.20;99.90;;;;;;8363584;28;20272;-66
2021/05/24 16:19:42;;;;;;;;;;;14.30;99.90;;;;;;8364039;28;19909;-66
2021/05/24 16:24:02;;;;;;;;;;;14.20;99.90;;;;;;8345451;28;20338;-67
2021/05/24 16:28:02;;;;;;;;;;;14.10;99.90;;;;;;8312586;28;19944;-67
2021/05/24 16:32:03;;;;;;;;;;;14.10;99.90;;;;;;8346593;28;19966;-66
2021/05/24 16:36:04;;;;;;;;;;;14.00;99.90;;;;;;8356634;28;19920;-67
2021/05/24 16:40:05;;;;;;;;;;;14.00;99.90;;;;;;8359697;28;19913;-66
2021/05/24 16:44:06;;;;;;;;;;;14.00;99.90;;;;;;8359923;28;19912;-66
2021/05/24 16:48:07;;;;;;;;;;;14.10;99.90;;;;;;8341468;28;19917;-66
2021/05/24 16:52:08;;;;;;;;;;;14.10;99.90;;;;;;8354904;28;20437;-67
2021/05/24 16:56:10;;;;;;;;;;;14.10;99.90;;;;;;8355587;28;19916;-65
2021/05/24 17:00:11;;;;;;;;;;;14.10;99.90;;;;;;8340405;28;19925;-65
2021/05/24 17:04:12;;;;;;;;;;;14.20;99.90;;;;;;8358891;28;19936;-66
2021/05/24 17:08:12;;;;;;;;;;;14.10;99.90;;;;;;8356651;28;19917;-65
2021/05/24 17:12:13;;;;;;;;;;;14.00;99.90;;;;;;8348392;28;20338;-65
2021/05/24 17:16:14;;;;;;;;;;;14.10;99.90;;;;;;8332482;28;20699;-66
2021/05/24 17:20:15;;;;;;;;;;;14.00;99.90;;;;;;8350199;28;19917;-66
2021/05/24 17:24:16;;;;;;;;;;;14.10;99.90;;;;;;8323634;28;19925;-66
2021/05/24 17:28:16;;;;;;;;;;;14.20;99.90;;;;;;8341466;28;19970;-67
2021/05/24 17:32:17;;;;;;;;;;;14.10;99.90;;;;;;8333450;28;19917;-67
2021/05/24 17:36:17;;;;;;;;;;;13.90;99.90;;;;;;8334878;28;19924;-67
2021/05/24 17:40:19;;;;;;;;;;;13.70;99.90;;;;;;8351768;28;19956;-67
2021/05/24 17:44:20;;;;;;;;;;;13.50;99.90;;;;;;8344782;28;19916;-67
2021/05/24 17:48:21;;;;;;;;;;;13.30;99.90;;;;;;8354046;28;19912;-67
2021/05/24 17:52:24;;;;;;;;;;;13.30;99.90;;;;;;8339338;28;20298;-67
2021/05/24 17:56:24;;;;;;;;;;;13.30;99.90;;;;;;8340347;28;19924;-67
2021/05/24 18:00:25;;;;;;;;;;;13.20;99.90;;;;;;8321208;28;19947;-67
2021/05/24 18:04:25;;;;;;;;;;;13.20;99.90;;;;;;8335142;28;19920;-67
2021/05/24 18:08:27;;;;;;;;;;;13.10;99.90;;;;;;8355091;28;19913;-66
2021/05/24 18:12:27;;;;;;;;;;;13.20;99.90;;;;;;8324516;28;19924;-67
2021/05/24 18:16:28;;;;;;;;;;;13.20;99.90;;;;;;8339420;28;19913;-66
2021/05/24 18:20:31;;;;;;;;;;;13.20;99.90;;;;;;8354962;28;20009;-66
2021/05/24 18:24:32;;;;;;;;;;;13.20;99.90;;;;;;8336099;28;19927;-66
2021/05/24 18:28:32;;;;;;;;;;;13.10;99.90;;;;;;8355588;28;20337;-66
2021/05/24 18:32:34;;;;;;;;;;;12.90;99.90;;;;;;8354656;28;19916;-65
2021/05/24 18:36:34;;;;;;;;;;;12.90;99.90;;;;;;8353728;28;19999;-66
2021/05/24 18:40:35;;;;;;;;;;;12.90;99.90;;;;;;8345872;28;19927;-67
2021/05/24 18:44:36;;;;;;;;;;;12.70;99.90;;;;;;8354249;28;20636;-67
2021/05/24 18:48:37;;;;;;;;;;;12.60;99.90;;;;;;8334526;28;19920;-65
2021/05/24 18:52:38;;;;;;;;;;;12.60;99.90;;;;;;8323510;28;19917;-65
2021/05/24 18:56:38;;;;;;;;;;;12.60;99.90;;;;;;8352053;28;19913;-65
2021/05/24 19:00:39;;;;;;;;;;;12.50;99.90;;;;;;8353225;28;20688;-66
2021/05/24 19:06:01;;;;;;;;;;;12.50;99.90;;;;;;8353898;28;19930;-65
2021/05/24 19:09:00;;;;;;;;;;;12.50;99.90;;;;;;8353111;28;19917;-65
2021/05/24 19:13:00;;;;;;;;;;;12.30;99.90;;;;;;8354625;28;19923;-65
2021/05/24 19:17:01;;;;;;;;;;;12.20;99.90;;;;;;8331999;28;20407;-64
2021/05/24 19:21:01;;;;;;;;;;;12.20;99.90;;;;;;8344059;28;19963;-65
2021/05/24 19:25:03;;;;;;;;;;;12.20;99.90;;;;;;8339371;28;19921;-65
2021/05/24 19:29:08;;;;;;;;;;;12.20;99.90;;;;;;8341618;28;19917;-65
2021/05/24 19:33:08;;;;;;;;;;;12.00;99.90;;;;;;8325702;28;20014;-66
2021/05/24 19:37:10;;;;;;;;;;;11.90;99.90;;;;;;8340289;28;20343;-65
2021/05/24 19:41:10;;;;;;;;;;;11.90;99.90;;;;;;8337202;28;20096;-66
2021/05/24 19:45:12;;;;;;;;;;;12.00;99.90;;;;;;8337224;28;19917;-65
2021/05/24 19:51:16;;;;;;;;;;;12.00;99.90;;;;;;8350588;28;19954;-65
2021/05/24 20:27:48;;;;;;;;;;;11.50;99.90;;;;;;8358424;28;20006;-68
2021/05/24 20:31:49;;;;;;;;;;;11.50;99.90;;;;;;8362306;28;19924;-67
2021/05/24 20:35:49;;;;;;;;;;;11.30;99.90;;;;;;8348118;28;20364;-67
2021/05/24 20:39:50;;;;;;;;;;;11.50;99.90;;;;;;8346119;28;19913;-67
2021/05/24 20:43:51;;;;;;;;;;;11.40;99.90;;;;;;8345577;28;19909;-67
2021/05/24 20:47:52;;;;;;;;;;;11.50;99.90;;;;;;8359197;28;19925;-67
2021/05/24 20:51:52;;;;;;;;;;;11.40;99.90;;;;;;8362132;28;19913;-67
2021/05/24 20:55:53;;;;;;;;;;;11.30;99.90;;;;;;8361901;28;19916;-67
2021/05/24 20:59:56;;;;;;;;;;;11.50;99.90;;;;;;8361433;28;19917;-67
2021/05/24 21:03:56;;;;;;;;;;;11.50;99.90;;;;;;8361318;28;19916;-67
2021/05/24 21:07:57;;;;;;;;;;;11.50;99.90;;;;;;8362230;28;20418;-68
2021/05/24 21:11:57;;;;;;;;;;;11.60;99.90;;;;;;8362446;28;19909;-67
2021/05/24 21:15:58;;;;;;;;;;;11.40;99.90;;;;;;8343806;28;19978;-68
2021/05/24 21:19:58;;;;;;;;;;;11.50;99.90;;;;;;8362208;28;19913;-67
2021/05/24 21:23:59;;;;;;;;;;;11.50;99.90;;;;;;8362053;28;20316;-67
2021/05/24 21:27:59;;;;;;;;;;;11.60;99.90;;;;;;8361505;28;20494;-67
2021/05/24 21:32:00;;;;;;;;;;;11.60;99.90;;;;;;8361870;28;20007;-68
2021/05/24 21:36:01;;;;;;;;;;;11.50;99.90;;;;;;8361499;28;19955;-67
2021/05/24 21:40:03;;;;;;;;;;;11.50;99.90;;;;;;8362025;28;19909;-67
2021/05/24 21:44:03;;;;;;;;;;;11.60;99.90;;;;;;8361259;28;19916;-68
2021/05/24 21:48:04;;;;;;;;;;;11.60;99.90;;;;;;8361496;28;19959;-68
2021/05/24 21:52:05;;;;;;;;;;;11.60;99.90;;;;;;8361298;28;19908;-68
2021/05/24 21:56:05;;;;;;;;;;;11.60;99.90;;;;;;8361274;28;19954;-68
2021/05/24 22:00:11;;;;;;;;;;;11.60;99.90;;;;;;8360976;28;20455;-68
2021/05/24 22:04:11;;;;;;;;;;;11.60;99.90;;;;;;8342675;28;19917;-68
2021/05/24 22:08:12;;;;;;;;;;;11.50;99.90;;;;;;8360533;28;20530;-67
2021/05/24 22:12:13;;;;;;;;;;;11.50;99.90;;;;;;8359459;28;19915;-67
2021/05/24 22:16:13;;;;;;;;;;;11.40;99.90;;;;;;8360377;28;19908;-67
2021/05/24 22:20:14;;;;;;;;;;;10.60;99.90;;;;;;8360501;28;19916;-69
2021/05/24 22:24:14;;;;;;;;;;;9.70;99.90;;;;;;8360210;28;19916;-68
2021/05/24 22:28:15;;;;;;;;;;;9.30;99.90;;;;;;8359722;28;19909;-68
2021/05/24 22:32:16;;;;;;;;;;;9.00;99.90;;;;;;8341980;28;19908;-68
2021/05/24 22:36:16;;;;;;;;;;;8.80;99.90;;;;;;8360370;28;20364;-69
2021/05/24 22:40:18;;;;;;;;;;;8.70;99.90;;;;;;8359990;28;19990;-68
2021/05/24 22:44:19;;;;;;;;;;;8.80;99.90;;;;;;8359046;28;19915;-69
2021/05/24 22:48:20;;;;;;;;;;;8.70;99.90;;;;;;8341800;28;19915;-68
2021/05/24 22:52:20;;;;;;;;;;;8.70;99.90;;;;;;8359301;28;19909;-68
2021/05/24 22:56:21;;;;;;;;;;;8.70;99.90;;;;;;8359527;28;20334;-68
2021/05/24 23:00:24;;;;;;;;;;;8.70;99.90;;;;;;8359512;28;19913;-67
2021/05/24 23:04:24;;;;;;;;;;;8.80;99.90;;;;;;8359132;28;19917;-69
2021/05/24 23:08:25;;;;;;;;;;;8.80;99.90;;;;;;8341580;28;20386;-69
2021/05/24 23:12:25;;;;;;;;;;;8.90;99.90;;;;;;8359049;28;19909;-69
2021/05/24 23:16:25;;;;;;;;;;;9.00;99.90;;;;;;8341512;28;19912;-69
2021/05/24 23:20:26;;;;;;;;;;;9.00;99.90;;;;;;8341243;28;20358;-68
2021/05/24 23:24:26;;;;;;;;;;;9.10;99.90;;;;;;8324510;28;19995;-69
2021/05/24 23:28:27;;;;;;;;;;;9.00;99.90;;;;;;8330052;28;19909;-69
2021/05/24 23:32:27;;;;;;;;;;;9.10;99.90;;;;;;8332411;28;19916;-69
2021/05/24 23:36:28;;;;;;;;;;;9.10;99.90;;;;;;8365257;28;20030;-70
2021/05/24 23:40:28;;;;;;;;;;;9.20;99.90;;;;;;8347572;28;19913;-69
2021/05/24 23:44:29;;;;;;;;;;;9.20;99.90;;;;;;8364656;28;19913;-68
2021/05/24 23:48:29;;;;;;;;;;;9.20;99.90;;;;;;8365089;28;19913;-68
2021/05/24 23:52:30;;;;;;;;;;;9.20;99.90;;;;;;8364828;28;19909;-68
2021/05/24 23:56:30;;;;;;;;;;;9.30;99.90;;;;;;8364683;28;19909;-68
